首页
METAR-TAF:

METAR-TAF

机场 :

Felker Army Airfield

Fort Eustis, 弗吉尼亚州, 美国

纬度: 37-08N, 经度: 076-37W, 海拔: 4米

当前天气观测

该预报发布于21分钟前的10:40 UTC
风速9节,风向东北
温度 6°C
湿度 81%
气压 1027 hPa
能見度: 16.1公里
多云层高于2700英尺
阴天层高于7000英尺

METAR: KFAF 151040Z AUTO 04009KT 10SM BKN027 OVC070 06/03 A3034 RMK AO2 RAE13DZB13E40 SLP277 $

时间: 06:01 (11:01 UTC)

预报

该预报发布于16小时和1分钟前的19:00 UTC
预报有效从14日的 19点(UTC)到 16日的 01点(UTC)
风速10节,风向
能见度10公里或以上
多云层高于18000英尺
短暂存在
从 14日的 19点(UTC)到 14日的 21点(UTC)
风速12节,风向,有时为18节阵风
成为
从 14日的 22点(UTC)到 14日的 23点(UTC)
风速9节,风向北转东北
能见度10公里或以上
少量云层高于2000英尺
多云层高于11000英尺
成为
从 15日的 04点(UTC)到 15日的 05点(UTC)
风速12节,风向东转东北
能见度10公里或以上
多云层高于2000英尺
成为
从 15日的 08点(UTC)到 15日的 09点(UTC)
风速10节,风向东转东北,有时为15节阵风
能見度: 8000
散云层高于500英尺
阴天层高于1000英尺
小雨
成为
从 15日的 14点(UTC)到 15日的 15点(UTC)
风速15节,风向东转东北,有时为20节阵风
能見度: 4800
阴天层高于500英尺
阵雨
短暂存在
从 15日的 18点(UTC)到 15日的 22点(UTC)
风速18节,风向东转东北,有时为25节阵风
能見度: 1511

TAF: KFAF 141900Z 1419/1601 36010KT 9999 BKN180 QNH3040INS TEMPO 1419/1421 01012G18KT BECMG 1422/1423 02009KT 9999 FEW020 BKN110 QNH3042INS BECMG 1504/1505 06012KT 9999 BKN020 QNH3036INS BECMG 1508/1509 06010G15KT 8000 -RA SCT005 OVC010 QNH3018INS BECMG 1514/1515 06015G20KT 4800 SHRA OVC005 QNH2965INS TEMPO 1518/1522 06018G25KT TX11/1519Z TN06/1422Z LAST NO AMDS AFT 1504 NEXT 1511

超过4000个机场的气象观测和天气预报(METAR&TAF报告)。

可查询的气象台以黄色和红色小点在地图上表示。

将鼠标移到小点上方,可查看气象台名称。

然后点击查看天气观测和预报。

如需切换地图:点击带黑十字的绿色按钮放大地图;点击带横线的绿色按钮缩小地图;或者点击绿色箭头查看邻近地区的地图。


METAR-TAF: